Weather observations for the past three days for
Sierra Blanca Regional Airport
Metric (Imperial)
Date Time (mdt) Wind (kph) Vis. (km) Weather Sky Cond. Temperature (ºC) Relative Humidity Wind Chill (°C) Heat Index (°C) Pressure Precipitation (cm)
Air Dwpt 6 hour altimeter (cm) sea level (mb) 1 hr 3 hr 6 hr
Max. Min.
02 14:15 W 19 16.09 Overcast SCT042 OVC049 8 4 76% 5 76.96 0.0
02 13:55 W 22 16.09 Overcast SCT036 SCT043 OVC049 8 4 76% 5 76.94 0.0
02 13:35 W 22 16.09 Mostly Cloudy BKN036 BKN042 BKN049 9 4 71% 6 76.94 0.0
02 13:15 Calm 16.09 Light Rain OVC036 10 2 58% 76.94 0.0
02 12:55 SE 7 16.09 Overcast OVC036 10 2 58% 9 76.94 0.0
02 12:35 E 13 16.09 Overcast BKN032 OVC047 10 2 58% 8 76.96 0.0
02 12:15 SW 7 16.09 Overcast SCT034 OVC070 10 2 58% 9 76.99 0.0
02 11:55 S 13 16.09 Overcast OVC070 9 2 62% 7 76.99 0.0
02 11:35 SE 17 16.09 Mostly Cloudy SCT025 BKN070 9 2 62% 7 77.01 0.0
02 11:15 SE 15 16.09 Overcast OVC023 9 2 62% 7 77.01 0.0
02 10:55 SE 13 16.09 Overcast BKN021 OVC027 8 2 66% 6 77.01 0.0
02 10:35 SE 9 16.09 Mostly Cloudy BKN018 BKN055 8 3 71% 7 77.01 0.0
02 10:15 SE 13 16.09 Mostly Cloudy SCT018 BKN026 7 3 76% 5 77.01 0.0
02 09:55 S 13 16.09 Overcast FEW013 OVC026 6 2 76% 4 77.01 0.0
02 09:35 SE 9 16.09 Overcast FEW013 OVC024 5 2 81% 3 77.01 0.0
02 09:15 SE 9 16.09 Overcast SCT011 OVC024 5 2 81% 3 77.01 0.0
02 08:55 E 7 16.09 Overcast SCT011 OVC024 5 2 81% 4 77.01 0.0
02 08:35 SE 9 16.09 Overcast FEW009 OVC026 4 3 93% 2 76.99 0.0
02 08:15 SE 11 16.09 Overcast OVC026 4 3 93% 2 76.99 0.0
02 07:55 SE 11 16.09 Overcast OVC024 4 3 93% 2 76.99 0.0
02 07:35 SE 13 16.09 Overcast OVC024 3 3 100% 0 76.96 0.0
02 07:15 SE 9 16.09 Overcast OVC022 3 3 100% 1 76.96 0.0
02 06:55 S 7 16.09 Overcast OVC018 3 2 93% 1 76.94 0.0
02 06:35 SE 6 16.09 Overcast OVC018 3 3 100% 76.91 0.0
02 06:15 E 6 16.09 Overcast OVC018 3 3 100% 76.91 0.0
02 05:55 E 6 16.09 Overcast OVC018 3 3 100% 76.91 0.0
02 05:35 E 6 16.09 Overcast OVC016 3 3 100% 76.91 0.0
02 05:15 E 6 16.09 Overcast OVC014 3 3 100% 76.89 0.0
02 04:55 SE 6 16.09 Overcast FEW003 BKN010 OVC014 3 3 100% 76.89 0.0
02 04:35 SE 9 16.09 Overcast OVC008 3 3 100% 1 76.89 0.0
02 04:15 SE 7 16.09 Overcast SCT008 BKN013 OVC019 3 3 100% 1 76.89 0.0
02 03:55 SE 7 16.09 Overcast SCT015 OVC019 3 3 100% 1 76.86 0.0
02 03:35 E 7 16.09 Overcast SCT015 BKN021 OVC033 3 3 100% 1 76.89 0.0
02 03:15 Calm 16.09 Overcast FEW004 BKN015 OVC033 3 3 100% 76.89 0.0
02 02:55 SE 6 16.09 Overcast SCT015 BKN021 OVC033 3 3 100% 76.86 0.0
02 02:35 S 7 16.09 Overcast BKN013 OVC035 3 3 100% 1 76.86 0.0
02 02:15 Calm 16.09 Overcast FEW015 OVC035 3 3 100% 76.86 0.0
02 01:55 S 7 16.09 Overcast OVC033 3 3 100% 1 76.86 0.0
02 01:35 S 9 16.09 Overcast FEW016 OVC033 3 3 100% 1 76.86 0.0
02 01:15 SE 9 16.09 Overcast OVC016 3 3 100% 1 76.89 0.0
02 00:55 SE 9 16.09 Overcast OVC016 3 3 100% 1 76.89 0.0
02 00:35 SE 9 16.09 Overcast OVC016 3 3 100% 1 76.89 0.0
02 00:15 SE 11 16.09 Overcast OVC016 3 3 100% 0 76.89 0.0
01 23:55 SE 11 14.48 Overcast FEW003 OVC011 3 3 100% 0 76.89 0.0
01 23:35 SE 11 8.05 Fog/Mist BKN003 OVC009 3 3 100% 0 76.91 0.0
01 23:15 SE 13 4.83 Fog/Mist OVC003 3 3 100% 0 76.91 0.0
01 22:55 SE 11 6.44 Fog/Mist BKN004 OVC014 3 3 100% 0 76.89 0.0
01 22:35 SE 13 9.66 Fog/Mist OVC004 3 3 100% 0 76.89 0.0
01 22:15 SE 11 9.66 Fog/Mist OVC003 3 3 100% 0 76.89 0.0
01 21:55 SE 15 0.40 Fog OVC002 3 3 100% -0 76.89 0.0
01 21:35 SE 19 0.80 Fog OVC002 3 3 100% -1 76.86 0.0
01 21:15 SE 15 0.24 Fog OVC002 3 3 100% -0 76.84 0.0
01 20:55 SE 13 0.40 Fog OVC002 3 3 100% 0 76.81 0.0
01 20:35 SE 17 0.24 Light Rain OVC002 3 3 100% -1 76.81 0.0
01 20:15 SE 19 0.24 Fog OVC002 3 3 100% -1 76.78 0.0
01 19:55 SE 15 0.24 Fog OVC002 3 3 100% -0 76.76 0.0
01 19:35 SE 19 0.24 Light Rain OVC002 3 3 100% -1 76.73 0.0
01 19:15 SE 19 0.80 Fog OVC003 3 3 100% -1 76.71 0.0
01 18:55 SE 15 14.48 Overcast BKN004 OVC012 3 3 100% -0 76.71 0.0
01 18:35 SE 15 9.66 Fog/Mist OVC003 3 3 100% -0 76.71 0.0
01 18:15 E 19 0.24 Unknown Precip OVC002 3 3 100% -1 76.68 0.0
01 17:55 SE 17 1.61 Fog/Mist OVC003 3 3 100% -1 76.66 0.0
01 17:35 SE 24 0.24 Fog OVC002 3 3 100% -2 76.63 0.0
01 17:15 SE 20 0.80 Fog OVC002 3 3 100% -1 76.63 0.0
01 16:55 SE 24 G 33 2.41 Fog/Mist OVC003 4 4 100% -0 76.61 0.0
01 16:35 E 22 12.87 Mostly Cloudy BKN006 4 4 100% -0 76.58 0.0
01 16:15 SE 22 G 31 16.09 Mostly Cloudy BKN007 5 4 93% 1 76.58 0.0
01 15:55 SE 24 G 33 16.09 Mostly Cloudy BKN007 BKN012 BKN030 5 4 93% 1 76.58 0.0
01 15:35 SE 26 16.09 Mostly Cloudy BKN007 BKN013 BKN030 5 4 93% 1 76.58 0.0
01 15:15 SE 22 G 31 16.09 Overcast BKN011 BKN027 OVC033 6 4 87% 2 76.61 0.0
01 14:55 SE 19 G 30 16.09 Overcast BKN011 OVC031 6 5 93% 3 76.61 0.0
01 14:35 SE 22 16.09 Overcast BKN011 BKN019 OVC033 7 5 87% 4 76.61 0.0
01 14:15 SE 17 G 30 16.09 Mostly Cloudy FEW008 SCT014 BKN018 6 5 93% 3 76.61 0.0
01 13:55 SE 13 9.66 Light Rain FEW006 SCT014 BKN025 6 5 93% 4 76.61 0.0 0.05
01 13:35 SE 19 G 26 11.27 Light Rain SCT014 BKN019 BKN029 6 5 93% 3 76.61 0.0 0.03
01 13:15 E 11 9.66 Light Rain FEW014 SCT019 BKN029 6 4 87% 4 76.61 0.0
01 12:55 SE 13 12.87 Light Rain FEW019 BKN028 BKN033 5 4 93% 2 76.61 0.0 0.03
01 12:35 S 9 16.09 Light Rain BKN026 5 5 100% 3 76.61 0.0 0.03
01 11:55 SE 11 6.44 Light Rain FEW008 SCT013 5 5 100% 3 76.58 0.0 0.05
01 11:35 Calm 8.05 Light Rain FEW008 BKN015 4 4 100% 76.58 0.0 0.03
01 11:15 W 9 14.48 Light Rain BKN015 BKN022 4 4 100% 2 76.58 0.0
01 10:55 NW 11 14.48 Light Rain BKN015 BKN023 4 4 100% 2 76.56 0.0 0.03
01 10:35 N 9 11.27 Light Rain SCT013 BKN022 5 4 93% 3 76.56 0.0
01 10:15 NW 7 8.05 Light Rain FEW008 FEW015 BKN022 4 4 100% 2 76.53 0.0
01 09:55 NW 11 6.44 Light Rain FEW007 BKN015 BKN024 4 4 100% 2 76.53 0.0 0.08
01 09:35 N 7 8.05 Light Rain FEW017 SCT028 4 4 100% 2 76.5 0.0 0.03
01 09:15 NW 9 8.05 Light Rain FEW006 SCT028 4 4 100% 2 76.48 0.0 0.03
01 08:55 N 9 8.05 Light Rain FEW005 SCT014 BKN028 4 4 100% 2 76.48 0.0 0.05
01 08:35 NW 9 12.87 Light Rain FEW005 SCT014 BKN028 4 4 100% 2 76.45 0.0 0.03
01 08:15 NW 9 8.05 Light Rain FEW006 SCT023 BKN028 4 4 100% 2 76.45 0.0 0.03
01 07:55 N 7 6.44 Light Rain BKN010 BKN016 BKN031 4 4 100% 2 76.43 0.0 0.08
01 07:35 NW 9 6.44 Light Rain OVC006 4 4 100% 2 76.4 0.0 0.05
01 07:15 NW 7 6.44 Light Rain OVC005 4 4 100% 2 76.4 0.0 0.03
01 06:55 E 6 11.27 Light Rain OVC005 5 5 100% 76.35 0.0 0.05
01 06:35 SE 7 16.09 Light Rain OVC005 6 6 100% 5 76.33 0.0
01 06:15 SE 9 16.09 Overcast OVC004 6 6 100% 4 76.3 0.0
01 05:55 NE 6 12.87 Overcast OVC004 6 6 100% 76.3 0.0
01 05:35 E 13 12.87 Overcast BKN006 OVC020 6 6 100% 4 76.3 0.0
01 05:15 E 11 8.05 Fog/Mist BKN006 BKN014 OVC021 5 5 100% 3 76.3 0.0
01 04:55 E 15 2.82 Light Rain BKN002 OVC008 5 5 100% 2 76.3 0.0 0.05
01 04:35 E 15 2.82 Light Rain OVC002 6 6 100% 3 76.3 0.0
01 04:15 SE 9 4.83 Fog/Mist OVC003 6 6 100% 4 76.3 0.0
01 03:55 E 9 4.02 Fog/Mist OVC003 6 6 100% 4 76.3 0.0
01 03:35 E 7 4.02 Fog/Mist OVC003 6 6 100% 5 76.3 0.0
01 03:15 E 6 2.82 Fog/Mist OVC003 6 6 100% 76.33 0.0
01 02:55 NE 7 2.82 Light Rain OVC003 6 5 93% 5 76.33 0.0
01 02:35 E 11 4.02 Fog/Mist OVC004 6 5 93% 4 76.38 0.0
01 02:15 SE 11 6.44 Fog/Mist OVC004 6 5 93% 4 76.4 0.0
01 01:55 SE 17 12.87 Overcast OVC005 7 5 87% 4 76.4 0.0
01 01:15 SE 15 16.09 Overcast OVC006 7 5 87% 5 76.4 0.0
01 00:55 SE 15 16.09 Overcast OVC006 7 5 87% 5 76.4 0.0
01 00:35 E 15 16.09 Overcast OVC007 7 5 87% 5 76.4 0.0
01 00:15 SE 17 16.09 Overcast BKN009 OVC013 7 4 81% 4 76.4 0.0
30 23:55 SE 17 G 26 16.09 Overcast OVC013 7 4 81% 4 76.4 0.0
30 23:35 SE 20 16.09 Overcast BKN015 OVC100 7 4 81% 4 76.4 0.0
30 23:15 E 11 16.09 Mostly Cloudy BKN110 6 4 87% 4 76.4 0.0
30 22:55 SE 11 16.09 Partly Cloudy SCT100 5 3 87% 3 76.38 0.0
30 22:35 SE 7 16.09 Mostly Cloudy BKN100 6 3 81% 5 76.35 0.0
30 22:15 SE 11 16.09 Mostly Cloudy BKN100 7 3 76% 5 76.35 0.0
30 21:55 SE 15 16.09 Fair CLR 7 3 76% 5 76.38 0.0
30 21:35 SE 11 16.09 Fair CLR 7 3 76% 5 76.35 0.0
30 21:15 SE 9 16.09 A Few Clouds FEW039 8 3 71% 7 76.33 0.0
30 20:55 SE 17 16.09 Mostly Cloudy BKN039 8 3 71% 6 76.33 0.0
30 20:35 SE 20 16.09 Mostly Cloudy BKN041 BKN048 8 3 71% 5 76.33 0.0
30 20:15 SE 20 16.09 A Few Clouds FEW042 9 3 66% 6 76.3 0.0
30 19:55 SE 19 16.09 A Few Clouds FEW050 9 3 66% 7 76.28 0.0
30 19:35 SE 15 16.09 Fair CLR 10 3 62% 8 76.25 0.0
30 19:15 SE 19 16.09 Fair CLR 10 3 62% 8 76.25 0.0
30 18:55 SE 17 16.09 Fair CLR 10 3 62% 8 76.25 0.0
30 18:35 SE 19 16.09 Fair CLR 10 3 62% 8 76.25 0.0
30 18:15 SE 20 G 26 16.09 Fair CLR 10 3 62% 8 76.25 0.0
30 17:55 SE 17 16.09 Fair CLR 11 3 58% 76.25 0.0
30 17:35 SE 15 16.09 Fair CLR 11 3 58% 76.23 0.0
30 17:15 SE 15 16.09 Fair CLR 12 3 54% 76.23 0.0
30 16:55 E 17 16.09 Fair CLR 12 3 54% 76.25 0.0
30 16:35 SE 17 16.09 Fair CLR 12 3 54% 76.28 0.0
30 16:15 E 15 16.09 Fair CLR 11 2 54% 76.25 0.0
30 15:55 E 17 16.09 Fair CLR 11 2 54% 76.28 0.0
30 15:35 SE 17 G 28 16.09 Fair CLR 12 2 51% 76.3 0.0
30 15:15 SE 20 16.09 Fair CLR 11 2 54% 76.3 0.0
30 14:55 E 22 16.09 Fair CLR 12 2 51% 76.33 0.0
30 14:35 SE 20 16.09 Fair CLR 11 2 54% 76.33 0.0
30 14:15 SE 20 16.09 Fair CLR 11 1 50% 76.35 0.0
30 13:55 SE 22 G 31 16.09 Fair CLR 10 1 54% 7 76.38 0.0
30 13:35 SE 13 G 31 16.09 Fair CLR 10 1 54% 8 76.4 0.0
30 13:15 SE 17 G 28 16.09 Fair CLR 10 1 54% 8 76.4 0.0
30 12:55 E 20 G 30 16.09 Fair CLR 10 2 58% 8 76.4 0.0
30 12:35 SE 22 16.09 Fair CLR 10 2 58% 7 76.4 0.0
30 12:15 SE 22 16.09 Fair CLR 9 2 62% 6 76.4 0.0
30 11:55 SE 26 16.09 Fair CLR 10 2 58% 7 76.43 0.0
30 11:35 SE 20 16.09 Fair CLR 10 2 58% 8 76.43 0.0
30 11:15 SE 24 16.09 Fair CLR 10 2 58% 7 76.43 0.0
30 10:55 SE 19 16.09 Fair CLR 10 1 54% 8 76.43 0.0
30 10:35 S 17 16.09 Fair CLR 10 1 54% 8 76.4 0.0
30 10:15 SE 15 16.09 Fair CLR 10 1 54% 8 76.43 0.0
30 09:55 SE 17 16.09 Fair CLR 10 0 50% 8 76.4 0.0
30 09:35 SE 17 16.09 Fair CLR 10 -1 47% 8 76.4 0.0
30 09:15 SE 9 16.09 Fair CLR 10 -4 37% 9 76.43 0.0
30 08:55 SE 7 16.09 Fair CLR 11 -6 30% 76.4 0.0
30 08:35 SE 7 16.09 Fair CLR 12 -10 21% 76.4 0.0
30 08:15 E 6 16.09 Fair CLR 13 -13 15% 76.4 0.0
30 07:55 N 6 16.09 Fair CLR 13 -14 14% 76.38 0.0
30 07:35 Calm 16.09 Fair CLR 12 -14 15% 76.4 0.0
30 07:15 W 6 16.09 Fair CLR 12 -15 14% 76.38 0.0
30 06:55 NW 7 16.09 Fair CLR 12 -15 14% 76.4 0.0
30 06:35 N 7 16.09 Fair CLR 10 -15 16% 9 76.38 0.0
30 06:15 Calm 16.09 A Few Clouds FEW120 11 -15 15% 76.35 0.0
30 05:55 Calm 16.09 A Few Clouds FEW120 10 -15 16% 76.35 0.0
30 05:35 W 7 16.09 Fair CLR 12 -16 13% 76.33 0.0
30 05:15 NE 9 16.09 Fair CLR 10 -16 14% 9 76.35 0.0
30 04:55 Calm 16.09 Fair CLR 11 -16 13% 76.33 0.0
30 04:35 SW 15 16.09 Fair CLR 12 -15 14% 76.35 0.0
30 04:15 W 15 16.09 Fair CLR 12 -16 13% 76.35 0.0
30 03:35 W 15 16.09 Fair CLR 12 -16 13% 76.33 0.0
30 03:15 W 15 16.09 Fair CLR 13 -16 12% 76.35 0.0
30 02:55 W 19 16.09 Fair CLR 13 -16 12% 76.35 0.0
30 02:35 W 15 16.09 Fair CLR 13 -17 11% 76.35 0.0
30 02:15 N 6 16.09 Fair CLR 12 -16 13% 76.38 0.0
30 01:55 SW 24 16.09 A Few Clouds FEW060 13 -16 12% 76.35 0.0
30 01:35 SW 28 16.09 Mostly Cloudy BKN060 14 -17 10% 76.38 0.0
30 01:15 SW 31 16.09 Mostly Cloudy BKN070 14 -17 10% 76.38 0.0
30 00:55 SW 26 G 39 16.09 Mostly Cloudy BKN070 14 -17 10% 76.38 0.0
30 00:35 SW 28 16.09 Overcast OVC060 14 -17 10% 76.4 0.0
30 00:15 SW 35 16.09 Overcast and Breezy OVC060 15 -17 9% 76.4 0.0
29 23:55 SW 37 G 43 16.09 Mostly Cloudy and Breezy FEW050 BKN060 15 -17 9% 76.4 0.0
29 23:35 SW 39 G 50 16.09 Mostly Cloudy and Breezy BKN050 15 -16 10% 76.4 0.0
29 23:15 SW 39 G 50 16.09 Mostly Cloudy and Breezy SCT045 BKN055 15 -15 11% 76.4 0.0
29 22:55 SW 39 G 46 16.09 Mostly Cloudy and Breezy SCT046 BKN060 15 -15 11% 76.4 0.0
29 22:35 SW 37 G 44 16.09 Partly Cloudy and Breezy FEW045 SCT050 15 -15 11% 76.43 0.0
29 22:15 SW 31 G 43 16.09 A Few Clouds FEW050 15 -15 11% 76.43 0.0
29 21:55 W 24 16.09 A Few Clouds FEW050 14 -17 10% 76.45 0.0
29 21:35 SW 31 G 41 16.09 A Few Clouds FEW050 15 -17 9% 76.43 0.0
29 21:15 SW 35 G 52 16.09 Breezy NULL 15 -18 9% 76.4 0.0
29 20:55 SW 39 G 57 16.09 Breezy NULL 15 -18 9% 76.38 0.0
29 20:15 SW 35 G 50 16.09 Breezy NULL 15 -17 9% 76.35 0.0
29 19:55 SW 43 G 50 16.09 Fair and Windy CLR 16 -17 9% 76.35 0.0
29 19:35 SW 43 G 52 0.00 Windy NULL 16 -18 8% 76.33 0.0
29 19:15 SW 28 16.09 NULL NULL 17 -18 8% 76.38 0.0
29 18:55 SW 30 G 43 16.09 NULL NULL 17 -18 8% 76.38 0.0
29 18:35 SW 28 G 41 16.09 NULL NULL 17 -18 8% 76.4 0.0
29 17:35 SW 30 G 39 0.00 NULL NULL 0 0 0% 76.35 0.0
29 17:15 SW 37 G 48 16.09 Breezy NULL 19 -17 7% 76.38 0.0
29 16:55 SW 28 G 48 16.09 NULL NULL 20 -17 7% 76.38 0.0
29 16:35 SW 30 G 43 16.09 Fair CLR 20 -17 7% 76.38 0.0
29 16:15 S 28 G 44 16.09 NULL NULL 20 -17 7% 76.38 0.0
29 15:55 SW 28 G 39 16.09 Fair CLR 20 -17 7% 76.4 0.0
29 15:35 S 31 G 43 16.09 Fair CLR 20 -16 7% 76.4 0.0
29 15:15 S 30 0.00 NULL NULL 19 -16 8% 76.43 0.0
29 14:55 S 35 16.09 Fair and Breezy CLR 19 -16 8% 76.45 0.0
Date Time (mdt) Wind (kph) Vis. (km) Weather Sky Cond. Air Dwpt Max. Min. Relative Humidity Wind Chill (°C) Heat Index (°C) altimeter (cm) sea level (mb) 1 hr 3 hr 6 hr
6 hour
Temperature (ºC) Pressure Precipitation (cm)